sensor_id;sensor_type;location;lat;lon;timestamp;temperature;humidity
72952;HTU21D;61102;51.956;5.878;2023-06-19T00:01:15;26.37;36.98
72952;HTU21D;61102;51.956;5.878;2023-06-19T00:03:41;26.37;37.11
72952;HTU21D;61102;51.956;5.878;2023-06-19T00:06:08;26.36;37.21
72952;HTU21D;61102;51.956;5.878;2023-06-19T00:08:34;26.35;37.17
72952;HTU21D;61102;51.956;5.878;2023-06-19T00:11:02;26.34;37.37
72952;HTU21D;61102;51.956;5.878;2023-06-19T00:13:28;26.34;37.44
72952;HTU21D;61102;51.956;5.878;2023-06-19T00:15:54;26.32;37.56
72952;HTU21D;61102;51.956;5.878;2023-06-19T00:18:21;26.32;37.75
72952;HTU21D;61102;51.956;5.878;2023-06-19T00:20:47;26.31;37.82
72952;HTU21D;61102;51.956;5.878;2023-06-19T00:23:13;26.27;37.97
72952;HTU21D;61102;51.956;5.878;2023-06-19T00:25:42;26.26;38.01
72952;HTU21D;61102;51.956;5.878;2023-06-19T00:28:10;26.24;38.13
72952;HTU21D;61102;51.956;5.878;2023-06-19T00:30:41;26.21;38.43
72952;HTU21D;61102;51.956;5.878;2023-06-19T00:33:07;26.17;38.53
72952;HTU21D;61102;51.956;5.878;2023-06-19T00:35:34;26.17;38.78
72952;HTU21D;61102;51.956;5.878;2023-06-19T00:38:00;26.16;39.07
72952;HTU21D;61102;51.956;5.878;2023-06-19T00:40:29;26.16;39.13
72952;HTU21D;61102;51.956;5.878;2023-06-19T00:42:56;26.22;39.05
72952;HTU21D;61102;51.956;5.878;2023-06-19T00:45:22;26.24;39.14
72952;HTU21D;61102;51.956;5.878;2023-06-19T00:47:51;26.25;39.52
72952;HTU21D;61102;51.956;5.878;2023-06-19T00:50:18;26.28;39.27
72952;HTU21D;61102;51.956;5.878;2023-06-19T00:52:44;26.27;39.63
72952;HTU21D;61102;51.956;5.878;2023-06-19T00:55:11;26.30;39.68
72952;HTU21D;61102;51.956;5.878;2023-06-19T00:57:37;26.31;39.84
72952;HTU21D;61102;51.956;5.878;2023-06-19T01:00:05;26.32;40.01
72952;HTU21D;61102;51.956;5.878;2023-06-19T01:02:34;26.30;39.94
72952;HTU21D;61102;51.956;5.878;2023-06-19T01:05:00;26.30;39.88
72952;HTU21D;61102;51.956;5.878;2023-06-19T01:10:24;26.34;39.86
72952;HTU21D;61102;51.956;5.878;2023-06-19T01:13:02;26.32;39.91
72952;HTU21D;61102;51.956;5.878;2023-06-19T01:15:32;26.31;39.90
72952;HTU21D;61102;51.956;5.878;2023-06-19T01:17:58;26.28;40.03
72952;HTU21D;61102;51.956;5.878;2023-06-19T01:20:26;26.27;39.98
72952;HTU21D;61102;51.956;5.878;2023-06-19T01:22:52;26.23;40.15
72952;HTU21D;61102;51.956;5.878;2023-06-19T01:25:25;26.23;40.05
72952;HTU21D;61102;51.956;5.878;2023-06-19T01:27:51;26.23;40.02
72952;HTU21D;61102;51.956;5.878;2023-06-19T01:30:17;26.20;40.06
72952;HTU21D;61102;51.956;5.878;2023-06-19T01:33:15;26.17;40.12
72952;HTU21D;61102;51.956;5.878;2023-06-19T01:35:44;26.16;40.00
72952;HTU21D;61102;51.956;5.878;2023-06-19T01:38:12;26.08;39.92
72952;HTU21D;61102;51.956;5.878;2023-06-19T01:40:40;25.98;40.06
72952;HTU21D;61102;51.956;5.878;2023-06-19T01:43:08;25.90;40.21
72952;HTU21D;61102;51.956;5.878;2023-06-19T01:45:36;25.83;40.46
72952;HTU21D;61102;51.956;5.878;2023-06-19T01:48:02;25.75;40.49
72952;HTU21D;61102;51.956;5.878;2023-06-19T01:50:52;25.68;40.74
72952;HTU21D;61102;51.956;5.878;2023-06-19T01:53:19;25.60;40.69
72952;HTU21D;61102;51.956;5.878;2023-06-19T01:55:46;25.53;41.04
72952;HTU21D;61102;51.956;5.878;2023-06-19T01:58:12;25.46;41.25
72952;HTU21D;61102;51.956;5.878;2023-06-19T02:00:38;25.42;41.47
72952;HTU21D;61102;51.956;5.878;2023-06-19T02:03:04;25.37;41.49
72952;HTU21D;61102;51.956;5.878;2023-06-19T02:05:31;25.32;41.71
72952;HTU21D;61102;51.956;5.878;2023-06-19T02:07:57;25.28;41.68
72952;HTU21D;61102;51.956;5.878;2023-06-19T02:10:23;25.23;41.71
72952;HTU21D;61102;51.956;5.878;2023-06-19T02:12:49;25.17;42.08
72952;HTU21D;61102;51.956;5.878;2023-06-19T02:15:16;25.14;42.27
72952;HTU21D;61102;51.956;5.878;2023-06-19T02:17:42;25.09;42.42
72952;HTU21D;61102;51.956;5.878;2023-06-19T02:20:11;25.02;42.90
72952;HTU21D;61102;51.956;5.878;2023-06-19T02:22:38;24.95;42.74
72952;HTU21D;61102;51.956;5.878;2023-06-19T02:25:05;24.89;43.24
72952;HTU21D;61102;51.956;5.878;2023-06-19T02:27:31;24.85;43.67
72952;HTU21D;61102;51.956;5.878;2023-06-19T02:29:59;24.77;44.03
72952;HTU21D;61102;51.956;5.878;2023-06-19T02:32:25;24.71;44.22
72952;HTU21D;61102;51.956;5.878;2023-06-19T02:34:51;24.66;44.54
72952;HTU21D;61102;51.956;5.878;2023-06-19T02:37:17;24.60;44.61
72952;HTU21D;61102;51.956;5.878;2023-06-19T02:39:52;24.57;44.87
72952;HTU21D;61102;51.956;5.878;2023-06-19T02:42:18;24.54;44.85
72952;HTU21D;61102;51.956;5.878;2023-06-19T02:44:44;24.44;45.38
72952;HTU21D;61102;51.956;5.878;2023-06-19T02:47:11;24.38;45.43
72952;HTU21D;61102;51.956;5.878;2023-06-19T02:49:38;24.32;45.47
72952;HTU21D;61102;51.956;5.878;2023-06-19T02:52:04;24.28;45.90
72952;HTU21D;61102;51.956;5.878;2023-06-19T02:54:30;24.24;46.08
72952;HTU21D;61102;51.956;5.878;2023-06-19T02:56:56;24.21;46.30
72952;HTU21D;61102;51.956;5.878;2023-06-19T02:59:23;24.18;46.41
72952;HTU21D;61102;51.956;5.878;2023-06-19T03:01:50;24.16;46.57
72952;HTU21D;61102;51.956;5.878;2023-06-19T03:04:17;24.14;46.48
72952;HTU21D;61102;51.956;5.878;2023-06-19T03:06:44;24.12;47.12
72952;HTU21D;61102;51.956;5.878;2023-06-19T03:09:11;24.13;47.12
72952;HTU21D;61102;51.956;5.878;2023-06-19T03:11:42;24.15;46.96
72952;HTU21D;61102;51.956;5.878;2023-06-19T03:14:09;24.13;47.42
72952;HTU21D;61102;51.956;5.878;2023-06-19T03:16:35;24.10;47.21
72952;HTU21D;61102;51.956;5.878;2023-06-19T03:19:02;24.06;47.34
72952;HTU21D;61102;51.956;5.878;2023-06-19T03:21:29;24.02;47.39
72952;HTU21D;61102;51.956;5.878;2023-06-19T03:23:56;23.99;47.50
72952;HTU21D;61102;51.956;5.878;2023-06-19T03:26:23;24.39;46.56
72952;HTU21D;61102;51.956;5.878;2023-06-19T03:28:50;24.09;47.05
72952;HTU21D;61102;51.956;5.878;2023-06-19T03:31:16;23.95;47.47
72952;HTU21D;61102;51.956;5.878;2023-06-19T03:33:42;23.88;47.71
72952;HTU21D;61102;51.956;5.878;2023-06-19T03:36:10;23.86;47.76
72952;HTU21D;61102;51.956;5.878;2023-06-19T03:38:48;23.86;47.68
72952;HTU21D;61102;51.956;5.878;2023-06-19T03:41:19;23.87;47.63
72952;HTU21D;61102;51.956;5.878;2023-06-19T03:43:45;23.92;48.02
72952;HTU21D;61102;51.956;5.878;2023-06-19T03:46:11;23.99;47.59
72952;HTU21D;61102;51.956;5.878;2023-06-19T03:48:37;24.08;47.47
72952;HTU21D;61102;51.956;5.878;2023-06-19T03:51:03;24.13;47.37
72952;HTU21D;61102;51.956;5.878;2023-06-19T03:53:31;24.15;47.44
72952;HTU21D;61102;51.956;5.878;2023-06-19T03:55:57;24.24;47.21
72952;HTU21D;61102;51.956;5.878;2023-06-19T03:58:24;24.29;47.05
72952;HTU21D;61102;51.956;5.878;2023-06-19T04:00:51;24.30;47.09
72952;HTU21D;61102;51.956;5.878;2023-06-19T04:03:21;24.29;47.39
72952;HTU21D;61102;51.956;5.878;2023-06-19T04:05:47;24.35;47.10
72952;HTU21D;61102;51.956;5.878;2023-06-19T04:08:13;24.38;47.05
72952;HTU21D;61102;51.956;5.878;2023-06-19T04:10:43;24.39;47.18
72952;HTU21D;61102;51.956;5.878;2023-06-19T04:13:09;24.40;47.21
72952;HTU21D;61102;51.956;5.878;2023-06-19T04:15:35;24.41;47.21
72952;HTU21D;61102;51.956;5.878;2023-06-19T04:18:03;24.46;47.10
72952;HTU21D;61102;51.956;5.878;2023-06-19T04:20:29;24.84;46.59
72952;HTU21D;61102;51.956;5.878;2023-06-19T04:22:55;24.59;46.88
72952;HTU21D;61102;51.956;5.878;2023-06-19T04:25:22;24.50;47.50
72952;HTU21D;61102;51.956;5.878;2023-06-19T04:27:49;24.47;47.84
72952;HTU21D;61102;51.956;5.878;2023-06-19T04:30:15;24.43;47.87
72952;HTU21D;61102;51.956;5.878;2023-06-19T04:32:41;24.41;48.05
72952;HTU21D;61102;51.956;5.878;2023-06-19T04:35:09;24.38;48.37
72952;HTU21D;61102;51.956;5.878;2023-06-19T04:37:35;24.36;48.69
72952;HTU21D;61102;51.956;5.878;2023-06-19T04:40:02;24.38;48.65
72952;HTU21D;61102;51.956;5.878;2023-06-19T04:42:29;24.41;48.61
72952;HTU21D;61102;51.956;5.878;2023-06-19T04:48:07;24.51;48.70
72952;HTU21D;61102;51.956;5.878;2023-06-19T04:50:33;24.51;48.78
72952;HTU21D;61102;51.956;5.878;2023-06-19T04:52:59;24.54;49.01
72952;HTU21D;61102;51.956;5.878;2023-06-19T04:55:25;24.56;49.02
72952;HTU21D;61102;51.956;5.878;2023-06-19T04:57:51;24.58;48.94
72952;HTU21D;61102;51.956;5.878;2023-06-19T05:00:18;24.60;49.04
72952;HTU21D;61102;51.956;5.878;2023-06-19T05:02:49;24.60;49.24
72952;HTU21D;61102;51.956;5.878;2023-06-19T05:05:16;24.56;49.39
72952;HTU21D;61102;51.956;5.878;2023-06-19T05:07:44;24.53;49.83
72952;HTU21D;61102;51.956;5.878;2023-06-19T05:10:11;24.53;49.71
72952;HTU21D;61102;51.956;5.878;2023-06-19T05:12:37;24.54;49.95
72952;HTU21D;61102;51.956;5.878;2023-06-19T05:15:03;24.55;49.73
72952;HTU21D;61102;51.956;5.878;2023-06-19T05:17:32;24.45;50.54
72952;HTU21D;61102;51.956;5.878;2023-06-19T05:19:58;24.39;50.58
72952;HTU21D;61102;51.956;5.878;2023-06-19T05:22:24;24.40;50.72
72952;HTU21D;61102;51.956;5.878;2023-06-19T05:24:52;24.42;50.34
72952;HTU21D;61102;51.956;5.878;2023-06-19T05:27:18;24.40;50.52
72952;HTU21D;61102;51.956;5.878;2023-06-19T05:29:44;24.29;51.06
72952;HTU21D;61102;51.956;5.878;2023-06-19T05:32:10;24.19;51.20
72952;HTU21D;61102;51.956;5.878;2023-06-19T05:34:36;24.15;51.68
72952;HTU21D;61102;51.956;5.878;2023-06-19T05:37:02;24.23;51.43
72952;HTU21D;61102;51.956;5.878;2023-06-19T05:39:29;24.34;51.31
72952;HTU21D;61102;51.956;5.878;2023-06-19T05:41:55;24.46;51.09
72952;HTU21D;61102;51.956;5.878;2023-06-19T05:44:21;24.55;51.15
72952;HTU21D;61102;51.956;5.878;2023-06-19T05:46:48;24.68;51.05
72952;HTU21D;61102;51.956;5.878;2023-06-19T05:49:14;24.80;50.61
72952;HTU21D;61102;51.956;5.878;2023-06-19T05:51:40;24.92;50.58
72952;HTU21D;61102;51.956;5.878;2023-06-19T05:54:06;25.01;50.46
72952;HTU21D;61102;51.956;5.878;2023-06-19T05:56:32;25.08;50.30
72952;HTU21D;61102;51.956;5.878;2023-06-19T05:58:59;25.16;50.08
72952;HTU21D;61102;51.956;5.878;2023-06-19T06:01:25;25.22;49.83
72952;HTU21D;61102;51.956;5.878;2023-06-19T06:03:54;25.25;49.62
72952;HTU21D;61102;51.956;5.878;2023-06-19T06:06:20;25.25;49.56
72952;HTU21D;61102;51.956;5.878;2023-06-19T06:08:47;25.23;49.43
72952;HTU21D;61102;51.956;5.878;2023-06-19T06:11:13;25.25;49.77
72952;HTU21D;61102;51.956;5.878;2023-06-19T06:13:39;25.31;49.69
72952;HTU21D;61102;51.956;5.878;2023-06-19T06:16:05;25.30;49.69
72952;HTU21D;61102;51.956;5.878;2023-06-19T06:18:31;25.31;49.69
72952;HTU21D;61102;51.956;5.878;2023-06-19T06:20:57;25.33;49.56
72952;HTU21D;61102;51.956;5.878;2023-06-19T06:23:25;25.35;49.55
72952;HTU21D;61102;51.956;5.878;2023-06-19T06:25:51;25.32;49.71
72952;HTU21D;61102;51.956;5.878;2023-06-19T06:28:17;25.25;49.78
72952;HTU21D;61102;51.956;5.878;2023-06-19T06:30:43;25.17;49.93
72952;HTU21D;61102;51.956;5.878;2023-06-19T06:33:09;25.13;50.01
72952;HTU21D;61102;51.956;5.878;2023-06-19T06:35:35;25.09;50.02
72952;HTU21D;61102;51.956;5.878;2023-06-19T06:38:02;25.04;50.11
72952;HTU21D;61102;51.956;5.878;2023-06-19T06:40:28;25.08;49.73
72952;HTU21D;61102;51.956;5.878;2023-06-19T06:42:54;25.03;50.52
72952;HTU21D;61102;51.956;5.878;2023-06-19T06:45:20;25.02;50.41
72952;HTU21D;61102;51.956;5.878;2023-06-19T06:47:53;24.97;50.54
72952;HTU21D;61102;51.956;5.878;2023-06-19T06:50:20;24.97;50.44
72952;HTU21D;61102;51.956;5.878;2023-06-19T06:52:46;24.97;50.30
72952;HTU21D;61102;51.956;5.878;2023-06-19T06:55:15;24.92;50.46
72952;HTU21D;61102;51.956;5.878;2023-06-19T06:57:43;24.97;50.44
72952;HTU21D;61102;51.956;5.878;2023-06-19T07:00:10;24.97;50.39
72952;HTU21D;61102;51.956;5.878;2023-06-19T07:02:37;25.00;50.08
72952;HTU21D;61102;51.956;5.878;2023-06-19T07:05:11;25.02;50.37
72952;HTU21D;61102;51.956;5.878;2023-06-19T07:08:02;25.13;50.10
72952;HTU21D;61102;51.956;5.878;2023-06-19T07:10:30;25.16;50.08
72952;HTU21D;61102;51.956;5.878;2023-06-19T07:12:56;25.25;49.82
72952;HTU21D;61102;51.956;5.878;2023-06-19T07:15:22;25.42;49.69
72952;HTU21D;61102;51.956;5.878;2023-06-19T07:17:48;25.63;49.24
72952;HTU21D;61102;51.956;5.878;2023-06-19T07:20:14;25.73;48.71
72952;HTU21D;61102;51.956;5.878;2023-06-19T07:22:41;25.81;48.34
72952;HTU21D;61102;51.956;5.878;2023-06-19T07:25:10;25.84;47.79
72952;HTU21D;61102;51.956;5.878;2023-06-19T07:27:36;25.94;47.44
72952;HTU21D;61102;51.956;5.878;2023-06-19T07:30:05;26.13;47.15
72952;HTU21D;61102;51.956;5.878;2023-06-19T07:32:31;26.50;46.47
72952;HTU21D;61102;51.956;5.878;2023-06-19T07:34:57;26.82;45.31
72952;HTU21D;61102;51.956;5.878;2023-06-19T07:37:23;27.10;44.64
72952;HTU21D;61102;51.956;5.878;2023-06-19T07:39:50;27.30;43.79
72952;HTU21D;61102;51.956;5.878;2023-06-19T07:42:19;27.38;43.27
72952;HTU21D;61102;51.956;5.878;2023-06-19T07:44:45;27.43;42.81
72952;HTU21D;61102;51.956;5.878;2023-06-19T07:47:11;27.53;42.48
72952;HTU21D;61102;51.956;5.878;2023-06-19T07:49:39;27.74;42.12
72952;HTU21D;61102;51.956;5.878;2023-06-19T07:52:06;27.88;41.65
72952;HTU21D;61102;51.956;5.878;2023-06-19T07:54:33;28.10;41.27
72952;HTU21D;61102;51.956;5.878;2023-06-19T07:57:00;28.30;40.26
72952;HTU21D;61102;51.956;5.878;2023-06-19T07:59:27;28.15;39.79
72952;HTU21D;61102;51.956;5.878;2023-06-19T08:01:53;28.06;40.04
72952;HTU21D;61102;51.956;5.878;2023-06-19T08:04:19;28.01;40.38
72952;HTU21D;61102;51.956;5.878;2023-06-19T08:06:45;28.06;40.44
72952;HTU21D;61102;51.956;5.878;2023-06-19T08:09:11;28.27;39.94
72952;HTU21D;61102;51.956;5.878;2023-06-19T08:11:37;28.34;39.56
72952;HTU21D;61102;51.956;5.878;2023-06-19T08:14:03;28.29;39.43
72952;HTU21D;61102;51.956;5.878;2023-06-19T08:16:29;28.42;39.30
72952;HTU21D;61102;51.956;5.878;2023-06-19T08:18:55;28.48;39.16
72952;HTU21D;61102;51.956;5.878;2023-06-19T08:21:21;28.52;38.75
72952;HTU21D;61102;51.956;5.878;2023-06-19T08:23:48;28.46;38.85
72952;HTU21D;61102;51.956;5.878;2023-06-19T08:26:16;28.49;38.86
72952;HTU21D;61102;51.956;5.878;2023-06-19T08:28:43;28.59;38.62
72952;HTU21D;61102;51.956;5.878;2023-06-19T08:31:10;28.62;38.68
72952;HTU21D;61102;51.956;5.878;2023-06-19T08:33:36;28.61;38.62
72952;HTU21D;61102;51.956;5.878;2023-06-19T08:36:02;28.69;38.47
72952;HTU21D;61102;51.956;5.878;2023-06-19T08:38:28;28.78;38.40
72952;HTU21D;61102;51.956;5.878;2023-06-19T08:40:55;28.86;38.22
72952;HTU21D;61102;51.956;5.878;2023-06-19T08:43:21;28.90;38.04
72952;HTU21D;61102;51.956;5.878;2023-06-19T08:48:28;28.93;38.19
72952;HTU21D;61102;51.956;5.878;2023-06-19T08:50:55;29.03;38.01
72952;HTU21D;61102;51.956;5.878;2023-06-19T08:53:21;29.14;38.03
72952;HTU21D;61102;51.956;5.878;2023-06-19T08:55:48;29.24;38.03
72952;HTU21D;61102;51.956;5.878;2023-06-19T08:58:23;29.46;37.86
72952;HTU21D;61102;51.956;5.878;2023-06-19T09:00:50;29.57;37.53
72952;HTU21D;61102;51.956;5.878;2023-06-19T09:03:22;29.68;37.56
72952;HTU21D;61102;51.956;5.878;2023-06-19T09:05:49;29.83;37.26
72952;HTU21D;61102;51.956;5.878;2023-06-19T09:08:19;30.07;36.92
72952;HTU21D;61102;51.956;5.878;2023-06-19T09:11:03;30.28;36.72
72952;HTU21D;61102;51.956;5.878;2023-06-19T09:13:31;30.23;36.41
72952;HTU21D;61102;51.956;5.878;2023-06-19T09:16:03;30.06;36.40
72952;HTU21D;61102;51.956;5.878;2023-06-19T09:18:31;29.92;36.68
72952;HTU21D;61102;51.956;5.878;2023-06-19T09:20:58;29.83;37.03
72952;HTU21D;61102;51.956;5.878;2023-06-19T09:23:27;29.78;36.97
72952;HTU21D;61102;51.956;5.878;2023-06-19T09:25:58;29.67;37.16
72952;HTU21D;61102;51.956;5.878;2023-06-19T09:28:27;29.67;37.23
72952;HTU21D;61102;51.956;5.878;2023-06-19T09:30:58;29.78;37.08
72952;HTU21D;61102;51.956;5.878;2023-06-19T09:33:31;29.98;37.01
72952;HTU21D;61102;51.956;5.878;2023-06-19T09:36:04;30.24;36.54
72952;HTU21D;61102;51.956;5.878;2023-06-19T09:38:33;30.44;36.26
72952;HTU21D;61102;51.956;5.878;2023-06-19T09:41:04;30.68;36.05
72952;HTU21D;61102;51.956;5.878;2023-06-19T09:43:59;31.09;35.27
72952;HTU21D;61102;51.956;5.878;2023-06-19T09:46:30;31.22;34.99
72952;HTU21D;61102;51.956;5.878;2023-06-19T09:49:01;31.35;34.57
72952;HTU21D;61102;51.956;5.878;2023-06-19T09:51:36;31.38;34.59
72952;HTU21D;61102;51.956;5.878;2023-06-19T09:54:03;31.46;34.42
72952;HTU21D;61102;51.956;5.878;2023-06-19T09:56:31;31.52;34.16
72952;HTU21D;61102;51.956;5.878;2023-06-19T09:58:59;31.50;34.18
72952;HTU21D;61102;51.956;5.878;2023-06-19T10:01:29;31.43;33.64
72952;HTU21D;61102;51.956;5.878;2023-06-19T10:04:08;31.30;33.77
72952;HTU21D;61102;51.956;5.878;2023-06-19T10:06:47;31.31;33.90
72952;HTU21D;61102;51.956;5.878;2023-06-19T10:09:15;31.34;33.76
72952;HTU21D;61102;51.956;5.878;2023-06-19T10:11:51;31.33;33.72
72952;HTU21D;61102;51.956;5.878;2023-06-19T10:14:49;31.41;33.86
72952;HTU21D;61102;51.956;5.878;2023-06-19T10:17:22;31.59;33.53
72952;HTU21D;61102;51.956;5.878;2023-06-19T10:19:52;31.68;33.37
72952;HTU21D;61102;51.956;5.878;2023-06-19T10:22:22;31.75;33.52
72952;HTU21D;61102;51.956;5.878;2023-06-19T10:24:54;31.89;32.54
72952;HTU21D;61102;51.956;5.878;2023-06-19T10:27:21;31.92;32.33
72952;HTU21D;61102;51.956;5.878;2023-06-19T10:29:57;31.86;32.67
72952;HTU21D;61102;51.956;5.878;2023-06-19T10:32:44;31.72;32.67
72952;HTU21D;61102;51.956;5.878;2023-06-19T10:35:48;31.83;32.79
72952;HTU21D;61102;51.956;5.878;2023-06-19T10:38:16;31.79;32.66
72952;HTU21D;61102;51.956;5.878;2023-06-19T10:40:46;31.69;33.02
72952;HTU21D;61102;51.956;5.878;2023-06-19T10:43:23;31.71;33.05
72952;HTU21D;61102;51.956;5.878;2023-06-19T10:45:53;31.79;32.96
72952;HTU21D;61102;51.956;5.878;2023-06-19T10:48:23;31.89;32.38
72952;HTU21D;61102;51.956;5.878;2023-06-19T10:50:50;31.93;32.26
72952;HTU21D;61102;51.956;5.878;2023-06-19T10:53:32;31.95;32.40
72952;HTU21D;61102;51.956;5.878;2023-06-19T10:56:02;32.05;32.28
72952;HTU21D;61102;51.956;5.878;2023-06-19T10:58:29;32.12;32.24
72952;HTU21D;61102;51.956;5.878;2023-06-19T11:00:55;32.29;31.96
72952;HTU21D;61102;51.956;5.878;2023-06-19T11:03:22;32.40;31.77
72952;HTU21D;61102;51.956;5.878;2023-06-19T11:05:52;32.55;31.48
72952;HTU21D;61102;51.956;5.878;2023-06-19T11:08:20;32.72;31.07
72952;HTU21D;61102;51.956;5.878;2023-06-19T11:10:47;32.92;31.03
72952;HTU21D;61102;51.956;5.878;2023-06-19T11:13:18;33.21;30.42
72952;HTU21D;61102;51.956;5.878;2023-06-19T11:15:45;33.38;29.77
72952;HTU21D;61102;51.956;5.878;2023-06-19T11:18:11;33.74;29.29
72952;HTU21D;61102;51.956;5.878;2023-06-19T11:23:10;33.53;29.61
72952;HTU21D;61102;51.956;5.878;2023-06-19T11:25:37;33.61;29.34
72952;HTU21D;61102;51.956;5.878;2023-06-19T11:28:14;33.68;29.12
72952;HTU21D;61102;51.956;5.878;2023-06-19T11:30:43;33.65;29.09
72952;HTU21D;61102;51.956;5.878;2023-06-19T11:33:21;33.68;29.02
72952;HTU21D;61102;51.956;5.878;2023-06-19T11:35:51;33.72;28.60
72952;HTU21D;61102;51.956;5.878;2023-06-19T11:38:21;33.82;28.85
72952;HTU21D;61102;51.956;5.878;2023-06-19T11:40:48;34.02;28.16
72952;HTU21D;61102;51.956;5.878;2023-06-19T11:43:32;34.29;28.16
72952;HTU21D;61102;51.956;5.878;2023-06-19T11:46:07;34.52;27.39
72952;HTU21D;61102;51.956;5.878;2023-06-19T11:48:37;34.65;27.10
72952;HTU21D;61102;51.956;5.878;2023-06-19T11:51:08;34.76;26.78
72952;HTU21D;61102;51.956;5.878;2023-06-19T11:53:35;34.91;26.86
72952;HTU21D;61102;51.956;5.878;2023-06-19T11:56:01;34.97;26.31
72952;HTU21D;61102;51.956;5.878;2023-06-19T11:58:30;35.13;26.32
72952;HTU21D;61102;51.956;5.878;2023-06-19T12:00:56;35.27;26.30
72952;HTU21D;61102;51.956;5.878;2023-06-19T12:03:22;35.39;25.34
72952;HTU21D;61102;51.956;5.878;2023-06-19T12:05:48;35.31;25.15
72952;HTU21D;61102;51.956;5.878;2023-06-19T12:08:14;35.31;24.98
72952;HTU21D;61102;51.956;5.878;2023-06-19T12:10:40;35.33;24.96
72952;HTU21D;61102;51.956;5.878;2023-06-19T12:13:06;35.40;24.91
72952;HTU21D;61102;51.956;5.878;2023-06-19T12:15:35;35.62;24.62
72952;HTU21D;61102;51.956;5.878;2023-06-19T12:18:04;35.88;24.02
72952;HTU21D;61102;51.956;5.878;2023-06-19T12:20:32;36.06;23.70
72952;HTU21D;61102;51.956;5.878;2023-06-19T12:23:06;36.27;23.01
72952;HTU21D;61102;51.956;5.878;2023-06-19T12:25:32;36.48;22.71
72952;HTU21D;61102;51.956;5.878;2023-06-19T12:27:58;36.76;22.63
72952;HTU21D;61102;51.956;5.878;2023-06-19T12:30:24;36.89;22.11
72952;HTU21D;61102;51.956;5.878;2023-06-19T12:32:50;36.95;21.52
72952;HTU21D;61102;51.956;5.878;2023-06-19T12:35:16;36.90;21.33
72952;HTU21D;61102;51.956;5.878;2023-06-19T12:37:46;36.93;21.55
72952;HTU21D;61102;51.956;5.878;2023-06-19T12:40:27;37.14;21.53
72952;HTU21D;61102;51.956;5.878;2023-06-19T12:42:54;37.40;21.40
72952;HTU21D;61102;51.956;5.878;2023-06-19T12:45:20;37.70;21.21
72952;HTU21D;61102;51.956;5.878;2023-06-19T12:47:46;37.90;20.87
72952;HTU21D;61102;51.956;5.878;2023-06-19T12:50:12;38.04;20.71
72952;HTU21D;61102;51.956;5.878;2023-06-19T12:52:38;38.32;20.38
72952;HTU21D;61102;51.956;5.878;2023-06-19T12:55:04;38.62;19.65
72952;HTU21D;61102;51.956;5.878;2023-06-19T12:57:30;39.40;18.82
72952;HTU21D;61102;51.956;5.878;2023-06-19T12:59:55;39.32;18.70
72952;HTU21D;61102;51.956;5.878;2023-06-19T13:02:22;39.37;18.31
72952;HTU21D;61102;51.956;5.878;2023-06-19T13:04:48;39.30;18.29
72952;HTU21D;61102;51.956;5.878;2023-06-19T13:07:14;39.26;17.93
72952;HTU21D;61102;51.956;5.878;2023-06-19T13:09:41;39.35;17.86
72952;HTU21D;61102;51.956;5.878;2023-06-19T13:12:34;39.37;17.51
72952;HTU21D;61102;51.956;5.878;2023-06-19T13:15:00;39.28;17.62
72952;HTU21D;61102;51.956;5.878;2023-06-19T13:17:26;39.36;17.43
72952;HTU21D;61102;51.956;5.878;2023-06-19T13:19:52;39.56;17.53
72952;HTU21D;61102;51.956;5.878;2023-06-19T13:22:18;39.84;17.40
72952;HTU21D;61102;51.956;5.878;2023-06-19T13:24:44;40.11;17.26
72952;HTU21D;61102;51.956;5.878;2023-06-19T13:27:10;40.17;16.58
72952;HTU21D;61102;51.956;5.878;2023-06-19T13:29:36;40.24;16.65
72952;HTU21D;61102;51.956;5.878;2023-06-19T13:32:03;40.55;15.97
72952;HTU21D;61102;51.956;5.878;2023-06-19T13:34:29;40.92;15.26
72952;HTU21D;61102;51.956;5.878;2023-06-19T13:36:55;41.03;15.45
72952;HTU21D;61102;51.956;5.878;2023-06-19T13:39:21;41.25;15.60
72952;HTU21D;61102;51.956;5.878;2023-06-19T13:41:47;41.59;15.39
72952;HTU21D;61102;51.956;5.878;2023-06-19T13:44:14;41.92;14.95
72952;HTU21D;61102;51.956;5.878;2023-06-19T13:46:40;42.14;14.70
72952;HTU21D;61102;51.956;5.878;2023-06-19T13:49:07;42.13;14.14
72952;HTU21D;61102;51.956;5.878;2023-06-19T13:51:36;42.02;14.46
72952;HTU21D;61102;51.956;5.878;2023-06-19T13:54:02;42.05;14.74
72952;HTU21D;61102;51.956;5.878;2023-06-19T13:56:32;42.19;14.49
72952;HTU21D;61102;51.956;5.878;2023-06-19T13:58:58;42.33;14.55
72952;HTU21D;61102;51.956;5.878;2023-06-19T14:01:24;42.36;14.66
72952;HTU21D;61102;51.956;5.878;2023-06-19T14:03:53;42.48;14.70
72952;HTU21D;61102;51.956;5.878;2023-06-19T14:06:19;42.55;14.79
72952;HTU21D;61102;51.956;5.878;2023-06-19T14:08:51;42.52;14.66
72952;HTU21D;61102;51.956;5.878;2023-06-19T14:11:18;42.54;14.43
72952;HTU21D;61102;51.956;5.878;2023-06-19T14:13:45;42.52;14.34
72952;HTU21D;61102;51.956;5.878;2023-06-19T14:16:11;42.51;14.67
72952;HTU21D;61102;51.956;5.878;2023-06-19T14:18:40;42.50;14.77
72952;HTU21D;61102;51.956;5.878;2023-06-19T14:21:06;41.50;15.45
72952;HTU21D;61102;51.956;5.878;2023-06-19T14:23:35;39.98;16.78
72952;HTU21D;61102;51.956;5.878;2023-06-19T14:26:06;38.61;18.34
72952;HTU21D;61102;51.956;5.878;2023-06-19T14:28:36;37.45;19.53
72952;HTU21D;61102;51.956;5.878;2023-06-19T14:31:08;36.48;20.73
72952;HTU21D;61102;51.956;5.878;2023-06-19T14:33:34;35.84;21.66
72952;HTU21D;61102;51.956;5.878;2023-06-19T14:36:02;35.35;22.21
72952;HTU21D;61102;51.956;5.878;2023-06-19T14:38:29;34.90;22.98
72952;HTU21D;61102;51.956;5.878;2023-06-19T14:41:01;34.51;23.56
72952;HTU21D;61102;51.956;5.878;2023-06-19T14:43:31;34.30;23.78
72952;HTU21D;61102;51.956;5.878;2023-06-19T14:45:58;34.11;24.04
72952;HTU21D;61102;51.956;5.878;2023-06-19T14:48:24;33.83;24.30
72952;HTU21D;61102;51.956;5.878;2023-06-19T14:50:50;33.53;24.88
72952;HTU21D;61102;51.956;5.878;2023-06-19T14:53:17;33.29;25.56
72952;HTU21D;61102;51.956;5.878;2023-06-19T14:55:43;33.11;25.79
72952;HTU21D;61102;51.956;5.878;2023-06-19T14:58:13;32.96;26.09
72952;HTU21D;61102;51.956;5.878;2023-06-19T15:00:40;32.77;26.20
72952;HTU21D;61102;51.956;5.878;2023-06-19T15:03:06;32.56;26.75
72952;HTU21D;61102;51.956;5.878;2023-06-19T15:05:33;32.47;26.84
72952;HTU21D;61102;51.956;5.878;2023-06-19T15:07:59;32.46;26.92
72952;HTU21D;61102;51.956;5.878;2023-06-19T15:10:27;32.39;27.05
72952;HTU21D;61102;51.956;5.878;2023-06-19T15:12:53;32.33;27.19
72952;HTU21D;61102;51.956;5.878;2023-06-19T15:15:21;32.28;27.16
72952;HTU21D;61102;51.956;5.878;2023-06-19T15:17:48;32.25;27.28
72952;HTU21D;61102;51.956;5.878;2023-06-19T15:20:14;32.22;27.36
72952;HTU21D;61102;51.956;5.878;2023-06-19T15:22:42;32.19;27.63
72952;HTU21D;61102;51.956;5.878;2023-06-19T15:25:11;32.19;27.57
72952;HTU21D;61102;51.956;5.878;2023-06-19T15:27:37;32.16;27.45
72952;HTU21D;61102;51.956;5.878;2023-06-19T15:30:04;32.05;27.65
72952;HTU21D;61102;51.956;5.878;2023-06-19T15:32:30;32.01;27.65